sensor_id;sensor_type;location;lat;lon;timestamp;temperature;humidity
30381;DHT22;17169;50.966;11.038;2023-03-12T00:00:07;-0.70;99.90
30381;DHT22;17169;50.966;11.038;2023-03-12T00:03:12;-0.70;99.90
30381;DHT22;17169;50.966;11.038;2023-03-12T00:06:15;-0.70;99.90
30381;DHT22;17169;50.966;11.038;2023-03-12T00:09:18;-0.70;99.90
30381;DHT22;17169;50.966;11.038;2023-03-12T00:12:21;-0.70;99.90
30381;DHT22;17169;50.966;11.038;2023-03-12T00:15:23;-0.70;99.90
30381;DHT22;17169;50.966;11.038;2023-03-12T00:18:27;-0.80;99.90
30381;DHT22;17169;50.966;11.038;2023-03-12T00:21:29;-0.80;99.90
30381;DHT22;17169;50.966;11.038;2023-03-12T00:24:32;-0.80;99.90
30381;DHT22;17169;50.966;11.038;2023-03-12T00:27:35;-0.80;99.90
30381;DHT22;17169;50.966;11.038;2023-03-12T00:30:37;-0.90;99.90
30381;DHT22;17169;50.966;11.038;2023-03-12T00:33:42;-0.90;99.90
30381;DHT22;17169;50.966;11.038;2023-03-12T00:36:44;-0.90;99.90
30381;DHT22;17169;50.966;11.038;2023-03-12T00:39:46;-1.00;99.90
30381;DHT22;17169;50.966;11.038;2023-03-12T00:42:49;-1.00;99.90
30381;DHT22;17169;50.966;11.038;2023-03-12T00:45:51;-1.00;99.90
30381;DHT22;17169;50.966;11.038;2023-03-12T00:48:55;-1.00;99.90
30381;DHT22;17169;50.966;11.038;2023-03-12T00:51:57;-1.00;99.90
30381;DHT22;17169;50.966;11.038;2023-03-12T00:54:59;-1.00;99.90
30381;DHT22;17169;50.966;11.038;2023-03-12T00:58:02;-1.00;99.90
30381;DHT22;17169;50.966;11.038;2023-03-12T01:01:04;-1.00;99.90
30381;DHT22;17169;50.966;11.038;2023-03-12T01:04:08;-1.00;99.90
30381;DHT22;17169;50.966;11.038;2023-03-12T01:07:11;-1.00;99.90
30381;DHT22;17169;50.966;11.038;2023-03-12T01:10:14;-0.90;99.90
30381;DHT22;17169;50.966;11.038;2023-03-12T01:13:17;-0.90;99.90
30381;DHT22;17169;50.966;11.038;2023-03-12T01:16:19;-0.90;99.90
30381;DHT22;17169;50.966;11.038;2023-03-12T01:19:23;-0.80;99.90
30381;DHT22;17169;50.966;11.038;2023-03-12T01:22:26;-0.80;99.90
30381;DHT22;17169;50.966;11.038;2023-03-12T01:25:28;-0.80;99.90
30381;DHT22;17169;50.966;11.038;2023-03-12T01:28:30;-0.80;99.90
30381;DHT22;17169;50.966;11.038;2023-03-12T01:31:33;-0.90;99.90
30381;DHT22;17169;50.966;11.038;2023-03-12T01:34:36;-0.90;99.90
30381;DHT22;17169;50.966;11.038;2023-03-12T01:37:39;-1.00;99.90
30381;DHT22;17169;50.966;11.038;2023-03-12T01:40:42;-1.00;99.90
30381;DHT22;17169;50.966;11.038;2023-03-12T01:43:45;-1.00;99.90
30381;DHT22;17169;50.966;11.038;2023-03-12T01:46:48;-1.00;99.90
30381;DHT22;17169;50.966;11.038;2023-03-12T01:49:53;-0.90;99.90
30381;DHT22;17169;50.966;11.038;2023-03-12T01:52:56;-0.90;99.90
30381;DHT22;17169;50.966;11.038;2023-03-12T01:55:59;-0.90;99.90
30381;DHT22;17169;50.966;11.038;2023-03-12T01:59:07;-0.90;99.90
30381;DHT22;17169;50.966;11.038;2023-03-12T02:02:12;-0.90;99.90
30381;DHT22;17169;50.966;11.038;2023-03-12T02:05:21;-0.90;99.90
30381;DHT22;17169;50.966;11.038;2023-03-12T02:08:25;-1.00;99.90
30381;DHT22;17169;50.966;11.038;2023-03-12T02:11:27;-1.00;99.90
30381;DHT22;17169;50.966;11.038;2023-03-12T02:14:30;-1.10;99.90
30381;DHT22;17169;50.966;11.038;2023-03-12T02:17:35;-1.10;99.90
30381;DHT22;17169;50.966;11.038;2023-03-12T02:20:44;-1.10;99.90
30381;DHT22;17169;50.966;11.038;2023-03-12T02:23:55;-1.10;99.90
30381;DHT22;17169;50.966;11.038;2023-03-12T02:27:03;-1.10;99.90
30381;DHT22;17169;50.966;11.038;2023-03-12T02:30:06;-1.20;99.90
30381;DHT22;17169;50.966;11.038;2023-03-12T02:33:09;-1.20;99.90
30381;DHT22;17169;50.966;11.038;2023-03-12T02:36:12;-1.20;99.90
30381;DHT22;17169;50.966;11.038;2023-03-12T02:39:14;-1.20;99.90
30381;DHT22;17169;50.966;11.038;2023-03-12T02:42:18;-1.20;99.90
30381;DHT22;17169;50.966;11.038;2023-03-12T02:45:21;-1.10;99.90
30381;DHT22;17169;50.966;11.038;2023-03-12T02:48:25;-1.10;99.90
30381;DHT22;17169;50.966;11.038;2023-03-12T02:51:28;-1.00;99.90
30381;DHT22;17169;50.966;11.038;2023-03-12T02:54:30;-1.00;99.90
30381;DHT22;17169;50.966;11.038;2023-03-12T02:57:34;-1.00;99.90
30381;DHT22;17169;50.966;11.038;2023-03-12T03:00:37;-1.00;99.90
30381;DHT22;17169;50.966;11.038;2023-03-12T03:03:40;-1.00;99.90
30381;DHT22;17169;50.966;11.038;2023-03-12T03:06:42;-1.00;99.90
30381;DHT22;17169;50.966;11.038;2023-03-12T03:09:45;-1.00;99.90
30381;DHT22;17169;50.966;11.038;2023-03-12T03:12:49;-1.10;99.90
30381;DHT22;17169;50.966;11.038;2023-03-12T03:15:51;-1.10;99.90
30381;DHT22;17169;50.966;11.038;2023-03-12T03:18:53;-1.00;99.90
30381;DHT22;17169;50.966;11.038;2023-03-12T03:21:56;-1.00;99.90
30381;DHT22;17169;50.966;11.038;2023-03-12T03:24:58;-1.00;99.90
30381;DHT22;17169;50.966;11.038;2023-03-12T03:28:02;-0.90;99.90
30381;DHT22;17169;50.966;11.038;2023-03-12T03:31:05;-0.90;99.90
30381;DHT22;17169;50.966;11.038;2023-03-12T03:34:07;-0.90;99.90
30381;DHT22;17169;50.966;11.038;2023-03-12T03:37:10;-0.90;99.90
30381;DHT22;17169;50.966;11.038;2023-03-12T03:40:12;-0.90;99.90
30381;DHT22;17169;50.966;11.038;2023-03-12T03:43:16;-0.90;99.90
30381;DHT22;17169;50.966;11.038;2023-03-12T03:46:18;-0.90;99.90
30381;DHT22;17169;50.966;11.038;2023-03-12T03:49:21;-0.90;99.90
30381;DHT22;17169;50.966;11.038;2023-03-12T03:52:23;-0.80;99.90
30381;DHT22;17169;50.966;11.038;2023-03-12T03:55:26;-0.80;99.90
30381;DHT22;17169;50.966;11.038;2023-03-12T03:58:30;-0.70;99.90
30381;DHT22;17169;50.966;11.038;2023-03-12T04:01:32;-0.70;99.90
30381;DHT22;17169;50.966;11.038;2023-03-12T04:04:34;-0.70;99.90
30381;DHT22;17169;50.966;11.038;2023-03-12T04:07:37;-0.70;99.90
30381;DHT22;17169;50.966;11.038;2023-03-12T04:10:39;-0.60;99.90
30381;DHT22;17169;50.966;11.038;2023-03-12T04:13:44;-0.50;99.90
30381;DHT22;17169;50.966;11.038;2023-03-12T04:16:46;-0.50;99.90
30381;DHT22;17169;50.966;11.038;2023-03-12T04:19:49;-0.50;99.90
30381;DHT22;17169;50.966;11.038;2023-03-12T04:22:51;-0.40;99.90
30381;DHT22;17169;50.966;11.038;2023-03-12T04:25:53;-0.30;99.90
30381;DHT22;17169;50.966;11.038;2023-03-12T04:28:59;-0.30;99.90
30381;DHT22;17169;50.966;11.038;2023-03-12T04:32:01;-0.20;99.90
30381;DHT22;17169;50.966;11.038;2023-03-12T04:35:04;-0.20;99.90
30381;DHT22;17169;50.966;11.038;2023-03-12T04:38:06;-0.10;99.90
30381;DHT22;17169;50.966;11.038;2023-03-12T04:41:11;0.00;99.90
30381;DHT22;17169;50.966;11.038;2023-03-12T04:44:15;0.00;99.90
30381;DHT22;17169;50.966;11.038;2023-03-12T04:47:17;0.00;99.90
30381;DHT22;17169;50.966;11.038;2023-03-12T04:50:19;0.10;99.90
30381;DHT22;17169;50.966;11.038;2023-03-12T04:53:23;0.10;99.90
30381;DHT22;17169;50.966;11.038;2023-03-12T04:56:25;0.10;99.90
30381;DHT22;17169;50.966;11.038;2023-03-12T04:59:29;0.20;99.90
30381;DHT22;17169;50.966;11.038;2023-03-12T05:02:31;0.20;99.90
30381;DHT22;17169;50.966;11.038;2023-03-12T05:05:34;0.20;99.90
30381;DHT22;17169;50.966;11.038;2023-03-12T05:08:36;0.30;99.90
30381;DHT22;17169;50.966;11.038;2023-03-12T05:11:39;0.40;99.90
30381;DHT22;17169;50.966;11.038;2023-03-12T05:14:42;0.40;99.90
30381;DHT22;17169;50.966;11.038;2023-03-12T05:17:45;0.50;99.90
30381;DHT22;17169;50.966;11.038;2023-03-12T05:20:57;0.50;99.90
30381;DHT22;17169;50.966;11.038;2023-03-12T05:24:00;0.60;99.90
30381;DHT22;17169;50.966;11.038;2023-03-12T05:27:02;0.60;99.90
30381;DHT22;17169;50.966;11.038;2023-03-12T05:30:07;0.70;99.90
30381;DHT22;17169;50.966;11.038;2023-03-12T05:33:09;0.80;99.90
30381;DHT22;17169;50.966;11.038;2023-03-12T05:36:12;0.90;99.90
30381;DHT22;17169;50.966;11.038;2023-03-12T05:39:15;0.90;99.90
30381;DHT22;17169;50.966;11.038;2023-03-12T05:42:17;0.90;99.90
30381;DHT22;17169;50.966;11.038;2023-03-12T05:45:21;0.90;99.90
30381;DHT22;17169;50.966;11.038;2023-03-12T05:48:23;1.00;99.90
30381;DHT22;17169;50.966;11.038;2023-03-12T05:51:25;1.10;99.90
30381;DHT22;17169;50.966;11.038;2023-03-12T05:54:28;1.10;99.90
30381;DHT22;17169;50.966;11.038;2023-03-12T05:57:30;1.10;99.90
30381;DHT22;17169;50.966;11.038;2023-03-12T06:00:34;1.10;99.90
30381;DHT22;17169;50.966;11.038;2023-03-12T06:03:38;1.20;99.90
30381;DHT22;17169;50.966;11.038;2023-03-12T06:06:40;1.20;99.90
30381;DHT22;17169;50.966;11.038;2023-03-12T06:09:42;1.20;99.90
30381;DHT22;17169;50.966;11.038;2023-03-12T06:12:45;1.30;99.90
30381;DHT22;17169;50.966;11.038;2023-03-12T06:15:48;1.30;99.90
30381;DHT22;17169;50.966;11.038;2023-03-12T06:18:52;1.30;99.90
30381;DHT22;17169;50.966;11.038;2023-03-12T06:21:54;1.30;99.90
30381;DHT22;17169;50.966;11.038;2023-03-12T06:24:56;1.40;99.90
30381;DHT22;17169;50.966;11.038;2023-03-12T06:27:59;1.40;99.90
30381;DHT22;17169;50.966;11.038;2023-03-12T06:31:03;1.50;99.90
30381;DHT22;17169;50.966;11.038;2023-03-12T06:34:06;1.50;99.90
30381;DHT22;17169;50.966;11.038;2023-03-12T06:37:08;1.60;99.90
30381;DHT22;17169;50.966;11.038;2023-03-12T06:40:12;1.70;99.90
30381;DHT22;17169;50.966;11.038;2023-03-12T06:43:14;1.80;99.90
30381;DHT22;17169;50.966;11.038;2023-03-12T06:46:19;1.90;99.90
30381;DHT22;17169;50.966;11.038;2023-03-12T06:49:22;2.00;99.90
30381;DHT22;17169;50.966;11.038;2023-03-12T06:52:24;2.10;99.90
30381;DHT22;17169;50.966;11.038;2023-03-12T06:55:27;2.20;99.90
30381;DHT22;17169;50.966;11.038;2023-03-12T06:58:30;2.30;99.90
30381;DHT22;17169;50.966;11.038;2023-03-12T07:01:34;2.30;99.90
30381;DHT22;17169;50.966;11.038;2023-03-12T07:04:36;2.40;99.90
30381;DHT22;17169;50.966;11.038;2023-03-12T07:07:38;2.40;99.90
30381;DHT22;17169;50.966;11.038;2023-03-12T07:10:41;2.40;99.90
30381;DHT22;17169;50.966;11.038;2023-03-12T07:13:44;2.40;99.90
30381;DHT22;17169;50.966;11.038;2023-03-12T07:16:47;2.50;99.90
30381;DHT22;17169;50.966;11.038;2023-03-12T07:19:50;2.70;99.90
30381;DHT22;17169;50.966;11.038;2023-03-12T07:22:52;2.70;99.90
30381;DHT22;17169;50.966;11.038;2023-03-12T07:25:55;2.80;99.90
30381;DHT22;17169;50.966;11.038;2023-03-12T07:28:57;2.90;99.90
30381;DHT22;17169;50.966;11.038;2023-03-12T07:32:01;2.90;99.90
30381;DHT22;17169;50.966;11.038;2023-03-12T07:35:04;3.00;99.90
30381;DHT22;17169;50.966;11.038;2023-03-12T07:38:07;3.00;99.90
30381;DHT22;17169;50.966;11.038;2023-03-12T07:41:10;3.10;99.90
30381;DHT22;17169;50.966;11.038;2023-03-12T07:44:12;3.20;99.90
30381;DHT22;17169;50.966;11.038;2023-03-12T07:47:16;3.30;99.90
30381;DHT22;17169;50.966;11.038;2023-03-12T07:50:18;3.40;99.90
30381;DHT22;17169;50.966;11.038;2023-03-12T07:53:21;3.50;99.90
30381;DHT22;17169;50.966;11.038;2023-03-12T07:56:23;3.60;99.90
30381;DHT22;17169;50.966;11.038;2023-03-12T07:59:26;3.70;99.90
30381;DHT22;17169;50.966;11.038;2023-03-12T08:02:29;3.70;99.90
30381;DHT22;17169;50.966;11.038;2023-03-12T08:05:32;3.80;99.90
30381;DHT22;17169;50.966;11.038;2023-03-12T08:08:34;3.80;99.90
30381;DHT22;17169;50.966;11.038;2023-03-12T08:11:38;3.90;99.90
30381;DHT22;17169;50.966;11.038;2023-03-12T08:14:40;3.90;99.90
30381;DHT22;17169;50.966;11.038;2023-03-12T08:17:44;3.90;99.90
30381;DHT22;17169;50.966;11.038;2023-03-12T08:20:49;4.00;99.90
30381;DHT22;17169;50.966;11.038;2023-03-12T08:23:51;4.20;99.90
30381;DHT22;17169;50.966;11.038;2023-03-12T08:26:53;4.30;99.90
30381;DHT22;17169;50.966;11.038;2023-03-12T08:29:56;4.50;99.90
30381;DHT22;17169;50.966;11.038;2023-03-12T08:33:00;4.60;99.10
30381;DHT22;17169;50.966;11.038;2023-03-12T08:36:02;4.80;98.80
30381;DHT22;17169;50.966;11.038;2023-03-12T08:39:05;5.00;99.10
30381;DHT22;17169;50.966;11.038;2023-03-12T08:42:07;5.20;98.60
30381;DHT22;17169;50.966;11.038;2023-03-12T08:45:10;5.30;98.70
30381;DHT22;17169;50.966;11.038;2023-03-12T08:48:14;5.50;98.10
30381;DHT22;17169;50.966;11.038;2023-03-12T08:51:17;5.60;97.80
30381;DHT22;17169;50.966;11.038;2023-03-12T08:54:20;5.70;97.30
30381;DHT22;17169;50.966;11.038;2023-03-12T08:57:22;5.80;97.30
30381;DHT22;17169;50.966;11.038;2023-03-12T09:00:25;5.90;96.70
30381;DHT22;17169;50.966;11.038;2023-03-12T09:03:28;6.00;97.30
30381;DHT22;17169;50.966;11.038;2023-03-12T09:06:31;6.00;96.70
30381;DHT22;17169;50.966;11.038;2023-03-12T09:09:35;6.10;96.90
30381;DHT22;17169;50.966;11.038;2023-03-12T09:12:37;6.20;96.50
30381;DHT22;17169;50.966;11.038;2023-03-12T09:15:40;6.20;96.00
30381;DHT22;17169;50.966;11.038;2023-03-12T09:18:43;6.30;96.10
30381;DHT22;17169;50.966;11.038;2023-03-12T09:21:46;6.30;95.70
30381;DHT22;17169;50.966;11.038;2023-03-12T09:24:48;6.20;95.90
30381;DHT22;17169;50.966;11.038;2023-03-12T09:27:51;6.30;95.90
30381;DHT22;17169;50.966;11.038;2023-03-12T09:30:53;6.40;95.50
30381;DHT22;17169;50.966;11.038;2023-03-12T09:33:57;6.30;95.20
30381;DHT22;17169;50.966;11.038;2023-03-12T09:36:59;6.30;95.20
30381;DHT22;17169;50.966;11.038;2023-03-12T09:40:02;6.30;95.50
30381;DHT22;17169;50.966;11.038;2023-03-12T09:43:11;6.30;95.80
30381;DHT22;17169;50.966;11.038;2023-03-12T09:46:20;6.30;95.40
30381;DHT22;17169;50.966;11.038;2023-03-12T09:49:31;6.40;95.60
30381;DHT22;17169;50.966;11.038;2023-03-12T09:52:41;6.50;95.80
30381;DHT22;17169;50.966;11.038;2023-03-12T09:55:48;6.50;95.40
30381;DHT22;17169;50.966;11.038;2023-03-12T09:58:51;6.50;95.20
30381;DHT22;17169;50.966;11.038;2023-03-12T10:01:57;6.60;95.30
30381;DHT22;17169;50.966;11.038;2023-03-12T10:05:05;6.70;94.90
30381;DHT22;17169;50.966;11.038;2023-03-12T10:08:19;6.80;95.00
30381;DHT22;17169;50.966;11.038;2023-03-12T10:11:34;6.90;94.90
30381;DHT22;17169;50.966;11.038;2023-03-12T10:14:49;7.00;94.60
30381;DHT22;17169;50.966;11.038;2023-03-12T10:17:58;7.10;94.60
30381;DHT22;17169;50.966;11.038;2023-03-12T10:21:15;7.10;94.80
30381;DHT22;17169;50.966;11.038;2023-03-12T10:24:41;7.20;94.90
30381;DHT22;17169;50.966;11.038;2023-03-12T10:27:46;7.20;94.40
30381;DHT22;17169;50.966;11.038;2023-03-12T10:30:52;7.10;94.70
30381;DHT22;17169;50.966;11.038;2023-03-12T10:33:57;7.00;94.80
30381;DHT22;17169;50.966;11.038;2023-03-12T10:37:05;7.10;94.90
30381;DHT22;17169;50.966;11.038;2023-03-12T10:40:15;7.20;95.10
30381;DHT22;17169;50.966;11.038;2023-03-12T10:43:17;7.10;95.00
30381;DHT22;17169;50.966;11.038;2023-03-12T10:46:55;7.20;95.00
30381;DHT22;17169;50.966;11.038;2023-03-12T10:50:12;7.40;95.20
30381;DHT22;17169;50.966;11.038;2023-03-12T10:53:26;7.50;94.90
30381;DHT22;17169;50.966;11.038;2023-03-12T10:56:30;7.50;94.70
30381;DHT22;17169;50.966;11.038;2023-03-12T10:59:48;7.50;94.90
30381;DHT22;17169;50.966;11.038;2023-03-12T11:02:56;7.50;95.00
30381;DHT22;17169;50.966;11.038;2023-03-12T11:06:01;7.50;95.50
30381;DHT22;17169;50.966;11.038;2023-03-12T11:09:15;7.60;95.20
30381;DHT22;17169;50.966;11.038;2023-03-12T11:12:23;7.50;95.70
30381;DHT22;17169;50.966;11.038;2023-03-12T11:15:29;7.60;95.70
30381;DHT22;17169;50.966;11.038;2023-03-12T11:18:38;7.60;95.70
30381;DHT22;17169;50.966;11.038;2023-03-12T11:21:54;7.50;95.70
30381;DHT22;17169;50.966;11.038;2023-03-12T11:25:00;7.50;96.30
30381;DHT22;17169;50.966;11.038;2023-03-12T11:28:03;7.50;96.20
30381;DHT22;17169;50.966;11.038;2023-03-12T11:31:10;7.40;96.20
30381;DHT22;17169;50.966;11.038;2023-03-12T11:34:21;7.40;96.50
30381;DHT22;17169;50.966;11.038;2023-03-12T11:37:35;7.40;96.60
30381;DHT22;17169;50.966;11.038;2023-03-12T11:40:55;7.40;96.90
30381;DHT22;17169;50.966;11.038;2023-03-12T11:44:18;7.40;96.90
30381;DHT22;17169;50.966;11.038;2023-03-12T11:47:35;7.40;97.10
30381;DHT22;17169;50.966;11.038;2023-03-12T11:50:56;7.40;97.50
30381;DHT22;17169;50.966;11.038;2023-03-12T11:57:48;7.30;98.70
30381;DHT22;17169;50.966;11.038;2023-03-12T12:00:57;7.30;99.60
30381;DHT22;17169;50.966;11.038;2023-03-12T12:04:14;7.30;99.80
30381;DHT22;17169;50.966;11.038;2023-03-12T12:07:31;7.40;99.70
30381;DHT22;17169;50.966;11.038;2023-03-12T12:10:43;7.40;99.90
30381;DHT22;17169;50.966;11.038;2023-03-12T12:13:59;7.40;99.90
30381;DHT22;17169;50.966;11.038;2023-03-12T12:17:16;7.40;99.90
30381;DHT22;17169;50.966;11.038;2023-03-12T12:20:30;7.40;99.90
30381;DHT22;17169;50.966;11.038;2023-03-12T12:23:42;7.40;99.90
30381;DHT22;17169;50.966;11.038;2023-03-12T12:26:53;7.50;99.90
30381;DHT22;17169;50.966;11.038;2023-03-12T12:30:10;7.50;99.90
30381;DHT22;17169;50.966;11.038;2023-03-12T12:33:23;7.60;99.90
30381;DHT22;17169;50.966;11.038;2023-03-12T12:36:33;7.50;99.90
30381;DHT22;17169;50.966;11.038;2023-03-12T12:39:38;7.50;99.90
30381;DHT22;17169;50.966;11.038;2023-03-12T12:42:50;7.50;99.90
30381;DHT22;17169;50.966;11.038;2023-03-12T12:45:58;7.50;99.90
30381;DHT22;17169;50.966;11.038;2023-03-12T12:49:04;7.40;99.90
30381;DHT22;17169;50.966;11.038;2023-03-12T12:52:11;7.50;99.90
30381;DHT22;17169;50.966;11.038;2023-03-12T12:55:17;7.50;99.90
30381;DHT22;17169;50.966;11.038;2023-03-12T12:58:25;7.50;99.90
30381;DHT22;17169;50.966;11.038;2023-03-12T13:01:32;7.50;99.90
30381;DHT22;17169;50.966;11.038;2023-03-12T13:04:37;7.70;99.90
30381;DHT22;17169;50.966;11.038;2023-03-12T13:07:40;7.70;99.90
30381;DHT22;17169;50.966;11.038;2023-03-12T13:10:42;7.80;99.90
30381;DHT22;17169;50.966;11.038;2023-03-12T13:13:53;7.70;99.90
30381;DHT22;17169;50.966;11.038;2023-03-12T13:17:26;7.70;99.90
30381;DHT22;17169;50.966;11.038;2023-03-12T13:20:32;7.70;99.90
30381;DHT22;17169;50.966;11.038;2023-03-12T13:23:46;7.60;99.90
30381;DHT22;17169;50.966;11.038;2023-03-12T13:26:57;7.60;99.90
30381;DHT22;17169;50.966;11.038;2023-03-12T13:33:41;7.50;99.90
30381;DHT22;17169;50.966;11.038;2023-03-12T13:36:46;7.60;99.90
30381;DHT22;17169;50.966;11.038;2023-03-12T13:39:50;7.60;99.90
30381;DHT22;17169;50.966;11.038;2023-03-12T13:43:02;7.60;99.90
30381;DHT22;17169;50.966;11.038;2023-03-12T13:46:19;7.60;99.90
30381;DHT22;17169;50.966;11.038;2023-03-12T13:49:24;7.50;99.90
30381;DHT22;17169;50.966;11.038;2023-03-12T13:52:28;7.40;99.90
30381;DHT22;17169;50.966;11.038;2023-03-12T13:55:33;7.30;99.90
30381;DHT22;17169;50.966;11.038;2023-03-12T13:58:40;7.30;99.90
30381;DHT22;17169;50.966;11.038;2023-03-12T14:01:47;7.30;99.90
30381;DHT22;17169;50.966;11.038;2023-03-12T14:04:53;7.30;99.90
30381;DHT22;17169;50.966;11.038;2023-03-12T14:08:20;7.30;99.90
30381;DHT22;17169;50.966;11.038;2023-03-12T14:11:35;7.20;99.90
30381;DHT22;17169;50.966;11.038;2023-03-12T14:14:53;7.20;99.90
30381;DHT22;17169;50.966;11.038;2023-03-12T14:18:01;7.20;99.90
30381;DHT22;17169;50.966;11.038;2023-03-12T14:21:11;7.20;99.90
30381;DHT22;17169;50.966;11.038;2023-03-12T14:24:23;7.10;99.90
30381;DHT22;17169;50.966;11.038;2023-03-12T14:27:28;7.20;99.90
30381;DHT22;17169;50.966;11.038;2023-03-12T14:30:40;7.20;99.90
30381;DHT22;17169;50.966;11.038;2023-03-12T14:33:50;7.20;99.90
30381;DHT22;17169;50.966;11.038;2023-03-12T14:36:59;7.20;99.90
30381;DHT22;17169;50.966;11.038;2023-03-12T14:40:11;7.30;99.90
30381;DHT22;17169;50.966;11.038;2023-03-12T14:43:22;7.40;99.90
30381;DHT22;17169;50.966;11.038;2023-03-12T14:46:25;7.50;99.90
30381;DHT22;17169;50.966;11.038;2023-03-12T14:49:29;7.60;99.90
30381;DHT22;17169;50.966;11.038;2023-03-12T14:52:33;7.50;99.90
30381;DHT22;17169;50.966;11.038;2023-03-12T14:55:36;7.50;99.90
30381;DHT22;17169;50.966;11.038;2023-03-12T14:58:43;7.50;99.90
30381;DHT22;17169;50.966;11.038;2023-03-12T15:01:46;7.50;99.90
30381;DHT22;17169;50.966;11.038;2023-03-12T15:04:51;7.30;99.90
30381;DHT22;17169;50.966;11.038;2023-03-12T15:08:00;7.30;99.90
30381;DHT22;17169;50.966;11.038;2023-03-12T15:11:04;7.30;99.90
30381;DHT22;17169;50.966;11.038;2023-03-12T15:14:11;7.30;99.90
30381;DHT22;17169;50.966;11.038;2023-03-12T15:17:16;7.30;99.90
30381;DHT22;17169;50.966;11.038;2023-03-12T15:20:20;7.20;99.90
30381;DHT22;17169;50.966;11.038;2023-03-12T15:23:25;7.20;99.90
30381;DHT22;17169;50.966;11.038;2023-03-12T15:26:30;7.30;99.90
30381;DHT22;17169;50.966;11.038;2023-03-12T15:29:40;7.30;99.90
30381;DHT22;17169;50.966;11.038;2023-03-12T15:33:05;7.40;99.90
30381;DHT22;17169;50.966;11.038;2023-03-12T15:36:25;7.40;99.90
30381;DHT22;17169;50.966;11.038;2023-03-12T15:39:31;7.40;99.90
30381;DHT22;17169;50.966;11.038;2023-03-12T15:42:37;7.40;99.90
30381;DHT22;17169;50.966;11.038;2023-03-12T15:45:41;7.40;99.90
30381;DHT22;17169;50.966;11.038;2023-03-12T15:48:47;7.40;99.90
30381;DHT22;17169;50.966;11.038;2023-03-12T15:52:02;7.50;99.90
30381;DHT22;17169;50.966;11.038;2023-03-12T15:55:21;7.50;99.90
30381;DHT22;17169;50.966;11.038;2023-03-12T15:58:26;7.50;99.90
30381;DHT22;17169;50.966;11.038;2023-03-12T16:01:42;7.50;99.90
30381;DHT22;17169;50.966;11.038;2023-03-12T16:04:44;7.50;99.90
30381;DHT22;17169;50.966;11.038;2023-03-12T16:07:47;7.40;99.90
30381;DHT22;17169;50.966;11.038;2023-03-12T16:10:51;7.40;99.90
30381;DHT22;17169;50.966;11.038;2023-03-12T16:14:01;7.40;99.90
30381;DHT22;17169;50.966;11.038;2023-03-12T16:17:08;7.40;99.90
30381;DHT22;17169;50.966;11.038;2023-03-12T16:20:13;7.40;99.90
30381;DHT22;17169;50.966;11.038;2023-03-12T16:23:18;7.30;99.90
30381;DHT22;17169;50.966;11.038;2023-03-12T16:26:22;7.30;99.90
30381;DHT22;17169;50.966;11.038;2023-03-12T16:29:29;7.40;99.90
30381;DHT22;17169;50.966;11.038;2023-03-12T16:32:32;7.40;99.90
30381;DHT22;17169;50.966;11.038;2023-03-12T16:35:35;7.40;99.90
30381;DHT22;17169;50.966;11.038;2023-03-12T16:38:37;7.40;99.90
30381;DHT22;17169;50.966;11.038;2023-03-12T16:41:41;7.50;99.90
30381;DHT22;17169;50.966;11.038;2023-03-12T16:44:44;7.40;99.90
30381;DHT22;17169;50.966;11.038;2023-03-12T16:47:51;7.40;99.90
30381;DHT22;17169;50.966;11.038;2023-03-12T16:50:56;7.30;99.90
30381;DHT22;17169;50.966;11.038;2023-03-12T16:53:58;7.30;99.90
30381;DHT22;17169;50.966;11.038;2023-03-12T16:57:02;7.20;99.90
30381;DHT22;17169;50.966;11.038;2023-03-12T17:00:07;7.30;99.90
30381;DHT22;17169;50.966;11.038;2023-03-12T17:03:17;7.30;99.90
30381;DHT22;17169;50.966;11.038;2023-03-12T17:06:22;7.30;99.90
30381;DHT22;17169;50.966;11.038;2023-03-12T17:09:25;7.20;99.90
30381;DHT22;17169;50.966;11.038;2023-03-12T17:12:31;7.20;99.90
30381;DHT22;17169;50.966;11.038;2023-03-12T17:15:33;7.20;99.90
30381;DHT22;17169;50.966;11.038;2023-03-12T17:18:36;7.30;99.90
30381;DHT22;17169;50.966;11.038;2023-03-12T17:21:38;7.30;99.90
30381;DHT22;17169;50.966;11.038;2023-03-12T17:24:41;7.30;99.90
30381;DHT22;17169;50.966;11.038;2023-03-12T17:27:46;7.30;99.90
30381;DHT22;17169;50.966;11.038;2023-03-12T17:30:48;7.30;99.90
30381;DHT22;17169;50.966;11.038;2023-03-12T17:33:51;7.30;99.90
30381;DHT22;17169;50.966;11.038;2023-03-12T17:36:53;7.30;99.90
30381;DHT22;17169;50.966;11.038;2023-03-12T17:39:55;7.30;99.90
30381;DHT22;17169;50.966;11.038;2023-03-12T17:42:59;7.30;99.90
30381;DHT22;17169;50.966;11.038;2023-03-12T17:46:03;7.30;99.90
30381;DHT22;17169;50.966;11.038;2023-03-12T17:49:06;7.30;99.90
30381;DHT22;17169;50.966;11.038;2023-03-12T17:52:09;7.40;99.90
30381;DHT22;17169;50.966;11.038;2023-03-12T17:55:13;7.40;99.90
30381;DHT22;17169;50.966;11.038;2023-03-12T17:58:16;7.40;99.90
30381;DHT22;17169;50.966;11.038;2023-03-12T18:01:19;7.40;99.90
30381;DHT22;17169;50.966;11.038;2023-03-12T18:04:21;7.30;99.90
30381;DHT22;17169;50.966;11.038;2023-03-12T18:07:23;7.40;99.90
30381;DHT22;17169;50.966;11.038;2023-03-12T18:10:26;7.30;99.90
30381;DHT22;17169;50.966;11.038;2023-03-12T18:13:30;7.30;99.90
30381;DHT22;17169;50.966;11.038;2023-03-12T18:16:32;7.30;99.90
30381;DHT22;17169;50.966;11.038;2023-03-12T18:19:34;7.30;99.90
30381;DHT22;17169;50.966;11.038;2023-03-12T18:22:37;7.30;99.90
30381;DHT22;17169;50.966;11.038;2023-03-12T18:25:40;7.30;99.90
30381;DHT22;17169;50.966;11.038;2023-03-12T18:28:44;7.30;99.90
30381;DHT22;17169;50.966;11.038;2023-03-12T18:31:46;7.30;99.90
30381;DHT22;17169;50.966;11.038;2023-03-12T18:34:48;7.30;99.90
30381;DHT22;17169;50.966;11.038;2023-03-12T18:37:53;7.40;99.90
30381;DHT22;17169;50.966;11.038;2023-03-12T18:41:01;7.30;99.90
30381;DHT22;17169;50.966;11.038;2023-03-12T18:44:05;7.30;99.90
30381;DHT22;17169;50.966;11.038;2023-03-12T18:47:08;7.30;99.90
30381;DHT22;17169;50.966;11.038;2023-03-12T18:50:11;7.40;99.90
30381;DHT22;17169;50.966;11.038;2023-03-12T18:53:13;7.40;99.90
30381;DHT22;17169;50.966;11.038;2023-03-12T18:56:16;7.50;99.90
30381;DHT22;17169;50.966;11.038;2023-03-12T18:59:19;7.50;99.90
30381;DHT22;17169;50.966;11.038;2023-03-12T19:02:22;7.50;99.90
30381;DHT22;17169;50.966;11.038;2023-03-12T19:05:30;7.50;99.90
30381;DHT22;17169;50.966;11.038;2023-03-12T19:08:34;7.60;99.90
30381;DHT22;17169;50.966;11.038;2023-03-12T19:11:37;7.70;99.90
30381;DHT22;17169;50.966;11.038;2023-03-12T19:14:41;7.80;99.90
30381;DHT22;17169;50.966;11.038;2023-03-12T19:17:43;8.00;99.90
30381;DHT22;17169;50.966;11.038;2023-03-12T19:20:46;8.10;99.90
30381;DHT22;17169;50.966;11.038;2023-03-12T19:23:48;8.20;99.90
30381;DHT22;17169;50.966;11.038;2023-03-12T19:26:52;8.30;99.90
30381;DHT22;17169;50.966;11.038;2023-03-12T19:29:56;8.30;99.90
30381;DHT22;17169;50.966;11.038;2023-03-12T19:32:58;8.40;99.90